Time;durP1;ratioP1;P1;durP2;ratioP2;P2;SDS_P1;SDS_P2;PMS_P1;PMS_P2;Temp;Humidity;BMP_temperature;BMP_pressure;BME280_temperature;BME280_humidity;BME280_pressure;Samples;Min_cycle;Max_cycle;Signal;HPM_P1;HPM_P2
2022/05/05 04:22:33;;;;;;;14.98;10.48;;;;;;;11.25;100.00;100516.84;5130297;27;20108;-77
2022/05/05 04:24:58;;;;;;;19.48;12.50;;;;;;;11.30;100.00;100519.84;5112333;28;20039;-78
2022/05/05 04:27:24;;;;;;;15.13;10.65;;;;;;;11.29;100.00;100523.50;5129344;28;20047;-78
2022/05/05 04:29:50;;;;;;;15.35;10.55;;;;;;;11.31;100.00;100525.00;5130558;28;20115;-77
2022/05/05 04:32:16;;;;;;;20.80;12.13;;;;;;;11.34;100.00;100526.47;5130236;28;20039;-78
2022/05/05 04:34:41;;;;;;;15.48;11.00;;;;;;;11.39;100.00;100535.63;5113575;28;20046;-78
2022/05/05 04:37:07;;;;;;;15.00;10.15;;;;;;;11.43;100.00;100527.28;5131483;28;20074;-78
2022/05/05 04:39:32;;;;;;;14.93;9.45;;;;;;;11.46;100.00;100532.28;5131747;27;20028;-78
2022/05/05 04:41:58;;;;;;;14.60;9.88;;;;;;;11.47;100.00;100540.09;5130741;28;20071;-78
2022/05/05 04:44:23;;;;;;;13.68;9.77;;;;;;;11.49;100.00;100540.78;5131211;28;20035;-78
2022/05/05 04:46:49;;;;;;;12.75;9.63;;;;;;;11.53;100.00;100536.75;5130861;28;20035;-78
2022/05/05 04:49:14;;;;;;;15.65;10.45;;;;;;;11.55;100.00;100541.94;5131535;28;20036;-77
2022/05/05 04:51:40;;;;;;;18.52;9.27;;;;;;;11.59;100.00;100544.06;5131253;28;20098;-78
2022/05/05 04:54:05;;;;;;;11.55;9.00;;;;;;;11.61;100.00;100549.25;5131277;28;20028;-78
2022/05/05 04:56:31;;;;;;;13.88;9.82;;;;;;;11.61;100.00;100555.41;5131021;28;20039;-78
2022/05/05 04:58:56;;;;;;;13.30;8.80;;;;;;;11.67;100.00;100559.19;5130785;28;20053;-77
2022/05/05 05:01:22;;;;;;;11.82;9.05;;;;;;;11.68;100.00;100555.56;5131002;28;20031;-76
2022/05/05 05:03:47;;;;;;;12.05;8.85;;;;;;;11.73;100.00;100563.84;5131134;28;20108;-78
2022/05/05 05:06:13;;;;;;;12.50;8.50;;;;;;;11.74;100.00;100562.03;5131743;28;20043;-78
2022/05/05 05:08:39;;;;;;;10.07;8.20;;;;;;;11.72;100.00;100562.19;5131519;28;20137;-78
2022/05/05 05:11:05;;;;;;;12.18;9.13;;;;;;;11.74;100.00;100554.03;5130876;28;20136;-78
2022/05/05 05:13:30;;;;;;;13.48;9.32;;;;;;;11.76;100.00;100557.34;5130393;27;20611;-78
2022/05/05 05:15:56;;;;;;;11.98;8.63;;;;;;;11.81;100.00;100563.03;5130985;28;20076;-78
2022/05/05 05:18:22;;;;;;;9.88;8.35;;;;;;;11.85;100.00;100570.50;5129673;28;20389;-78
2022/05/05 05:20:48;;;;;;;12.00;9.13;;;;;;;11.87;100.00;100571.19;5130910;28;20070;-78
2022/05/05 05:23:14;;;;;;;11.63;8.10;;;;;;;11.87;99.75;100570.34;5132711;28;20043;-77
2022/05/05 05:25:39;;;;;;;15.82;9.18;;;;;;;11.86;100.00;100568.66;5130633;28;20035;-78
2022/05/05 05:28:05;;;;;;;12.82;8.10;;;;;;;11.94;99.18;100577.50;5130374;28;20164;-77
2022/05/05 05:30:31;;;;;;;12.07;9.02;;;;;;;11.99;99.05;100582.28;5128563;28;20035;-77
2022/05/05 05:32:56;;;;;;;9.88;8.52;;;;;;;12.02;99.84;100584.63;5118898;28;20048;-77
2022/05/05 05:35:22;;;;;;;10.48;8.15;;;;;;;12.01;99.12;100585.63;5115190;28;20043;-77
2022/05/05 05:37:50;;;;;;;10.57;7.90;;;;;;;12.06;98.83;100583.28;5117581;28;20063;-78
2022/05/05 05:40:15;;;;;;;11.73;8.95;;;;;;;12.08;98.90;100591.09;5118011;28;20400;-79
2022/05/05 05:42:41;;;;;;;12.35;8.73;;;;;;;12.10;98.30;100586.41;5119456;28;20047;-79
2022/05/05 05:45:08;;;;;;;18.67;9.40;;;;;;;12.14;98.74;100587.75;5117660;28;20059;-78
2022/05/05 05:47:33;;;;;;;10.45;8.45;;;;;;;12.15;98.47;100587.56;5118150;28;20035;-78
2022/05/05 05:49:59;;;;;;;12.65;8.20;;;;;;;12.17;98.36;100590.88;5115025;28;20091;-79
2022/05/05 05:52:25;;;;;;;11.02;8.27;;;;;;;12.22;98.32;100585.84;5116211;28;20042;-78
2022/05/05 05:54:50;;;;;;;11.63;9.40;;;;;;;12.26;97.99;100591.69;5114766;28;20093;-77
2022/05/05 05:57:16;;;;;;;12.55;8.77;;;;;;;12.30;97.84;100597.50;5114226;28;20520;-78
2022/05/05 05:59:41;;;;;;;10.55;8.13;;;;;;;12.31;98.30;100591.97;5114955;28;20047;-77
2022/05/05 06:04:51;;;;;;;12.20;8.20;;;;;;;12.38;97.76;100610.78;5116306;28;20530;-80
2022/05/05 06:07:19;;;;;;;12.95;8.57;;;;;;;12.43;97.26;100608.44;5116535;28;20035;-77
2022/05/05 06:09:45;;;;;;;13.10;9.05;;;;;;;12.38;97.10;100608.13;5116324;28;20056;-77
2022/05/05 06:12:11;;;;;;;12.10;8.88;;;;;;;12.37;97.08;100609.13;5116496;28;20038;-78
2022/05/05 06:14:36;;;;;;;11.90;9.20;;;;;;;12.41;97.82;100611.28;5116900;28;20042;-77
2022/05/05 06:17:02;;;;;;;14.45;9.88;;;;;;;12.33;98.11;100608.66;5115719;28;20035;-78
2022/05/05 06:19:28;;;;;;;13.10;8.45;;;;;;;12.42;97.75;100620.13;5114185;28;20055;-78
2022/05/05 06:21:53;;;;;;;15.20;9.10;;;;;;;12.39;98.28;100618.66;5115022;28;20123;-78
2022/05/05 06:24:19;;;;;;;13.82;9.00;;;;;;;12.43;97.26;100632.47;5114507;28;20399;-78
2022/05/05 06:26:44;;;;;;;15.45;8.43;;;;;;;12.44;97.83;100631.47;5115578;28;20039;-78
2022/05/05 06:29:10;;;;;;;13.60;9.13;;;;;;;12.41;98.22;100631.81;5115700;28;20047;-78
2022/05/05 06:31:35;;;;;;;10.68;8.40;;;;;;;12.43;98.16;100635.16;5118831;28;20361;-78
2022/05/05 06:34:02;;;;;;;11.07;8.35;;;;;;;12.41;98.64;100631.81;5118870;28;20122;-77
2022/05/05 06:36:27;;;;;;;11.00;8.65;;;;;;;12.46;99.32;100634.81;5118162;28;20039;-79
2022/05/05 06:38:53;;;;;;;11.55;9.30;;;;;;;12.46;99.69;100646.31;5118761;28;20040;-79
2022/05/05 06:41:20;;;;;;;12.10;9.35;;;;;;;12.48;99.64;100646.16;5117007;28;20127;-78
2022/05/05 06:43:46;;;;;;;12.50;9.18;;;;;;;12.49;100.00;100642.47;5116133;28;20039;-79
2022/05/05 06:46:12;;;;;;;12.88;8.73;;;;;;;12.48;100.00;100643.47;5115317;28;20515;-76
2022/05/05 06:48:38;;;;;;;11.48;9.25;;;;;;;12.47;100.00;100655.16;5113403;28;20511;-74
2022/05/05 06:51:03;;;;;;;12.13;9.20;;;;;;;12.49;100.00;100651.31;5112643;28;20032;-75
2022/05/05 06:53:29;;;;;;;12.40;9.48;;;;;;;12.45;100.00;100654.50;5111790;28;20035;-75
2022/05/05 06:55:57;;;;;;;13.73;10.05;;;;;;;12.43;100.00;100662.69;5112181;28;20418;-75
2022/05/05 06:58:23;;;;;;;15.15;10.65;;;;;;;12.44;100.00;100668.88;5111954;28;20126;-75
2022/05/05 07:03:33;;;;;;;14.18;10.82;;;;;;;12.47;100.00;100671.19;5112908;28;20409;-75
2022/05/05 07:05:58;;;;;;;14.73;10.43;;;;;;;12.44;100.00;100672.38;5113046;28;20076;-74
2022/05/05 07:08:24;;;;;;;13.00;10.23;;;;;;;12.49;100.00;100674.53;5112970;28;20134;-74
2022/05/05 07:10:52;;;;;;;14.77;10.32;;;;;;;12.56;100.00;100674.66;5113010;28;20035;-74
2022/05/05 07:13:27;;;;;;;14.73;11.18;;;;;;;12.50;100.00;100670.84;5111394;28;20039;-75
2022/05/05 07:15:53;;;;;;;14.13;10.77;;;;;;;12.59;100.00;100669.81;5112826;28;20075;-75
2022/05/05 07:18:19;;;;;;;14.27;11.10;;;;;;;12.64;100.00;100678.09;5094629;28;20153;-75
2022/05/05 07:20:44;;;;;;;15.00;11.00;;;;;;;12.68;100.00;100682.09;5112583;28;20047;-75
2022/05/05 07:23:14;;;;;;;17.40;10.73;;;;;;;12.74;100.00;100677.88;5112410;28;20039;-75
2022/05/05 07:25:43;;;;;;;16.25;11.68;;;;;;;12.72;100.00;100674.56;5112858;28;20063;-72
2022/05/05 07:28:09;;;;;;;17.83;11.75;;;;;;;12.73;100.00;100677.06;5112626;28;20035;-72
2022/05/05 07:30:35;;;;;;;18.00;11.82;;;;;;;12.81;100.00;100678.84;5112495;28;20042;-72
2022/05/05 07:33:02;;;;;;;16.10;11.48;;;;;;;12.86;100.00;100683.66;5110901;28;20035;-72
2022/05/05 07:35:27;;;;;;;15.98;11.57;;;;;;;12.91;100.00;100690.16;5112195;28;20063;-72
2022/05/05 07:37:53;;;;;;;16.27;10.73;;;;;;;13.05;100.00;100691.22;5111255;28;20574;-72
2022/05/05 07:40:18;;;;;;;17.08;11.65;;;;;;;13.04;100.00;100685.03;5112391;28;20036;-72
2022/05/05 07:42:44;;;;;;;15.05;11.38;;;;;;;13.12;100.00;100686.81;5112076;28;20444;-74
2022/05/05 07:45:10;;;;;;;16.45;12.18;;;;;;;13.19;100.00;100687.75;5111065;28;20122;-74
2022/05/05 07:47:37;;;;;;;17.30;11.30;;;;;;;13.24;100.00;100696.13;5112332;28;20488;-74
2022/05/05 07:50:03;;;;;;;16.83;12.60;;;;;;;13.17;100.00;100699.63;5112418;28;20435;-74
2022/05/05 07:52:29;;;;;;;16.92;11.65;;;;;;;13.27;100.00;100701.09;5111996;28;20412;-74
2022/05/05 07:54:54;;;;;;;15.82;12.05;;;;;;;13.16;100.00;100706.00;5110800;28;20043;-75
2022/05/05 07:57:20;;;;;;;16.25;11.55;;;;;;;13.28;100.00;100704.59;5112005;28;20030;-74
2022/05/05 07:59:46;;;;;;;17.65;12.77;;;;;;;13.26;100.00;100720.00;5110998;28;20513;-74
2022/05/05 08:02:15;;;;;;;17.73;12.88;;;;;;;13.19;100.00;100711.00;5111871;28;20038;-74
2022/05/05 08:04:44;;;;;;;17.70;12.13;;;;;;;13.22;100.00;100706.16;5112183;28;20110;-74
2022/05/05 08:07:11;;;;;;;16.00;12.55;;;;;;;13.19;100.00;100711.00;5110696;28;20125;-73
2022/05/05 08:09:37;;;;;;;19.48;14.20;;;;;;;13.17;100.00;100713.00;5110953;28;20484;-73
2022/05/05 08:12:04;;;;;;;20.20;14.68;;;;;;;13.21;98.83;100711.69;5110468;28;20027;-74
2022/05/05 08:14:30;;;;;;;29.63;15.38;;;;;;;13.17;99.16;100713.00;5112044;28;20036;-74
2022/05/05 08:16:56;;;;;;;24.65;15.35;;;;;;;13.10;99.40;100718.25;5110470;28;20112;-75
2022/05/05 08:19:22;;;;;;;21.08;15.18;;;;;;;13.12;99.08;100720.75;5111971;28;20515;-76
2022/05/05 08:21:48;;;;;;;26.75;17.00;;;;;;;13.17;99.82;100726.38;5111549;28;20134;-74
2022/05/05 08:29:43;;;;;;;25.67;16.70;;;;;;;13.16;97.50;100727.41;5111833;28;20040;-74
2022/05/05 08:32:08;;;;;;;25.60;16.98;;;;;;;13.22;96.42;100732.91;5110241;28;20061;-75
2022/05/05 08:34:34;;;;;;;26.33;16.90;;;;;;;13.06;96.53;100730.31;5111757;28;20058;-75
2022/05/05 08:37:00;;;;;;;28.25;17.58;;;;;;;13.04;98.40;100735.84;5111644;28;20031;-74
2022/05/05 08:39:25;;;;;;;27.73;18.30;;;;;;;13.08;97.56;100735.47;5111711;28;20043;-74
2022/05/05 08:41:54;;;;;;;26.13;17.10;;;;;;;13.10;96.75;100734.28;5111283;28;20381;-75
2022/05/05 08:44:19;;;;;;;25.73;16.77;;;;;;;13.08;96.46;100735.47;5111564;28;20067;-74
2022/05/05 08:46:48;;;;;;;26.42;16.67;;;;;;;13.01;98.22;100748.72;5111600;28;20134;-74
2022/05/05 08:49:16;;;;;;;26.05;17.48;;;;;;;13.09;96.05;100743.31;5111674;28;20042;-73
2022/05/05 08:51:45;;;;;;;27.02;18.10;;;;;;;12.99;96.09;100746.25;5112216;28;20061;-75
2022/05/05 08:54:16;;;;;;;26.48;17.27;;;;;;;13.03;96.42;100746.72;5110934;28;20039;-75
2022/05/05 08:56:48;;;;;;;31.58;18.05;;;;;;;12.94;95.21;100748.59;5111587;28;20047;-76
2022/05/05 08:59:14;;;;;;;28.95;18.83;;;;;;;12.92;96.49;100755.16;5111482;28;20043;-76
2022/05/05 09:01:40;;;;;;;25.23;17.33;;;;;;;12.90;96.60;100754.47;5111486;28;20032;-77
2022/05/05 09:04:07;;;;;;;24.00;16.13;;;;;;;12.89;98.71;100750.13;5111401;28;20552;-76
2022/05/05 09:06:47;;;;;;;27.33;18.60;;;;;;;12.84;98.03;100757.84;5111504;28;20457;-76
2022/05/05 09:09:27;;;;;;;28.15;18.80;;;;;;;12.71;99.90;100759.28;5114996;28;20039;-75
2022/05/05 09:12:18;;;;;;;27.10;17.77;;;;;;;12.70;98.73;100759.44;5113883;28;20031;-75
2022/05/05 09:14:53;;;;;;;30.15;19.15;;;;;;;12.65;99.49;100757.31;5115228;28;20028;-75
2022/05/05 09:17:23;;;;;;;29.70;19.05;;;;;;;12.71;99.66;100758.41;5115162;27;20071;-75
2022/05/05 09:19:51;;;;;;;27.10;18.10;;;;;;;12.64;100.00;100765.47;5115096;28;20061;-75
2022/05/05 09:22:18;;;;;;;29.80;18.98;;;;;;;12.68;99.93;100764.94;5114806;28;20141;-75
2022/05/05 09:24:52;;;;;;;26.20;18.98;;;;;;;12.64;100.00;100768.97;5115169;28;20039;-76
2022/05/05 09:27:21;;;;;;;29.42;20.35;;;;;;;12.58;100.00;100760.81;5115191;28;20031;-75
2022/05/05 09:30:12;;;;;;;31.10;20.60;;;;;;;12.51;100.00;100766.03;5114985;28;20077;-75
2022/05/05 09:32:43;;;;;;;25.38;18.35;;;;;;;12.53;100.00;100768.53;5114690;28;20037;-76
2022/05/05 09:35:10;;;;;;;28.80;19.73;;;;;;;12.56;100.00;100773.53;5114978;28;20063;-75
2022/05/05 09:37:37;;;;;;;28.60;19.63;;;;;;;12.61;100.00;100766.66;5114757;28;20076;-75
2022/05/05 09:40:06;;;;;;;30.88;20.33;;;;;;;12.58;100.00;100758.97;5114794;28;20138;-75
2022/05/05 09:42:48;;;;;;;28.73;19.55;;;;;;;12.64;100.00;100768.97;5113045;28;20082;-75
2022/05/05 09:45:18;;;;;;;32.33;20.70;;;;;;;12.66;99.96;100769.66;5114811;28;20035;-75
2022/05/05 09:47:49;;;;;;;29.20;20.52;;;;;;;12.53;100.00;100777.38;5114710;28;20073;-75
2022/05/05 09:50:19;;;;;;;30.65;19.88;;;;;;;12.59;100.00;100773.19;5114684;28;20054;-75
2022/05/05 09:58:17;;;;;;;30.33;20.02;;;;;;;12.53;100.00;100774.72;5113379;28;20042;-75
2022/05/05 10:00:48;;;;;;;32.22;21.02;;;;;;;12.56;100.00;100774.34;5113164;28;20043;-75
2022/05/05 10:06:31;;;;;;;29.92;18.75;;;;;;;12.65;100.00;100784.03;5114211;28;20043;-76
2022/05/05 10:09:06;;;;;;;28.67;18.77;;;;;;;12.61;100.00;100780.03;5113154;28;20059;-76
2022/05/05 10:11:32;;;;;;;26.55;19.20;;;;;;;12.64;100.00;100785.00;5114062;28;20031;-76
2022/05/05 10:14:03;;;;;;;27.63;17.98;;;;;;;12.67;99.87;100776.66;5113939;28;20015;-76
2022/05/05 10:16:31;;;;;;;28.80;17.90;;;;;;;12.54;100.00;100779.06;5114262;27;20040;-76
2022/05/05 10:18:58;;;;;;;29.33;18.83;;;;;;;12.58;100.00;100780.34;5114446;28;20028;-76
2022/05/05 10:21:49;;;;;;;27.30;18.75;;;;;;;12.61;99.79;100777.34;5114013;28;20536;-75
2022/05/05 10:24:28;;;;;;;30.88;18.83;;;;;;;12.67;98.61;100782.00;5114204;28;20496;-76
2022/05/05 10:26:56;;;;;;;26.33;16.70;;;;;;;12.71;98.48;100775.31;5114898;28;20034;-75
2022/05/05 10:29:33;;;;;;;;;;;;;;;12.71;98.29;100777.97;5113668;28;20164;-75
2022/05/05 10:32:13;;;;;;;28.02;16.15;;;;;;;12.61;96.98;100769.34;5113765;28;20010;-75
2022/05/05 10:34:45;;;;;;;26.42;17.10;;;;;;;12.67;99.87;100779.31;5114329;28;20076;-76
2022/05/05 10:37:17;;;;;;;27.17;18.15;;;;;;;12.68;100.00;100770.31;5114436;27;20080;-75
2022/05/05 10:39:51;;;;;;;26.48;16.92;;;;;;;12.66;99.32;100774.16;5113871;28;20027;-75
2022/05/05 10:42:41;;;;;;;24.27;16.33;;;;;;;12.70;98.82;100776.28;5113308;28;20069;-75
2022/05/05 10:45:16;;;;;;;25.55;15.35;;;;;;;12.68;98.92;100777.50;5107418;28;20051;-75
2022/05/05 10:48:01;;;;;;;24.55;15.90;;;;;;;12.51;99.01;100776.72;5113617;28;20127;-75
2022/05/05 10:50:54;;;;;;;22.85;16.27;;;;;;;12.61;99.91;100777.34;5112315;28;20210;-75
2022/05/05 10:53:39;;;;;;;25.85;17.48;;;;;;;12.65;100.00;100786.69;5113062;28;20063;-75
2022/05/05 10:56:25;;;;;;;30.95;18.77;;;;;;;12.65;99.98;100784.03;5113252;28;20039;-75
2022/05/05 10:59:03;;;;;;;28.73;19.15;;;;;;;12.59;100.00;100790.06;5113287;28;20077;-75
2022/05/05 11:01:50;;;;;;;26.95;18.92;;;;;;;12.65;100.00;100789.38;5112984;27;20039;-74
2022/05/05 11:04:15;;;;;;;34.55;18.77;;;;;;;12.55;100.00;100791.41;5102041;28;20047;-75
2022/05/05 11:06:45;;;;;;;32.45;18.98;;;;;;;12.53;100.00;100790.75;5113090;28;20066;-75
2022/05/05 11:09:40;;;;;;;29.35;19.42;;;;;;;12.50;100.00;100793.75;5113011;28;20035;-74
2022/05/05 11:12:20;;;;;;;34.53;19.63;;;;;;;12.39;100.00;100794.16;5103499;28;20048;-75
2022/05/05 11:23:21;;;;;;;29.25;18.63;;;;;;;12.31;100.00;100791.47;5111614;28;20075;-76
2022/05/05 11:25:48;;;;;;;31.85;18.65;;;;;;;12.35;100.00;100787.47;5112679;28;20027;-76
2022/05/05 11:28:14;;;;;;;30.88;19.35;;;;;;;12.42;100.00;100799.13;5112777;28;20099;-75
2022/05/05 11:30:43;;;;;;;36.65;20.30;;;;;;;12.46;100.00;100792.44;5112189;28;20023;-75
2022/05/05 11:33:09;;;;;;;36.00;20.92;;;;;;;12.50;100.00;100796.41;5112336;28;20073;-76
2022/05/05 11:35:35;;;;;;;32.40;20.10;;;;;;;12.59;100.00;100795.41;5111405;28;20035;-76
2022/05/05 11:38:01;;;;;;;31.15;18.70;;;;;;;12.60;100.00;100786.38;5112540;28;20043;-75
2022/05/05 11:40:34;;;;;;;33.50;19.27;;;;;;;12.68;100.00;100797.03;5111509;28;20063;-75
2022/05/05 11:45:45;;;;;;;26.05;17.50;;;;;;;12.79;100.00;100784.31;5111054;28;20036;-76
2022/05/05 11:48:16;;;;;;;28.10;17.63;;;;;;;12.94;99.26;100778.03;5112552;28;20059;-75
2022/05/05 11:50:43;;;;;;;25.77;16.75;;;;;;;13.12;99.36;100780.44;5112430;28;20308;-75
2022/05/05 11:53:18;;;;;;;29.27;17.27;;;;;;;13.12;100.00;100775.09;5112149;28;20031;-75
2022/05/05 11:55:45;;;;;;;28.70;17.77;;;;;;;13.36;100.00;100776.78;5112105;28;20032;-76
2022/05/05 12:01:36;;;;;;;26.42;16.67;;;;;;;13.38;98.40;100776.63;5112352;28;20042;-75
2022/05/05 12:04:00;;;;;;;29.80;17.52;;;;;;;13.33;94.02;100778.97;5111964;28;20042;-75
2022/05/05 12:06:27;;;;;;;22.45;16.25;;;;;;;13.48;94.73;100778.03;5112141;28;20412;-75
2022/05/05 12:08:53;;;;;;;30.13;17.73;;;;;;;13.61;96.58;100780.09;5112152;28;20065;-74
2022/05/05 12:11:19;;;;;;;29.20;17.95;;;;;;;13.68;92.00;100780.19;5111931;28;20035;-74
2022/05/05 12:13:44;;;;;;;23.42;14.88;;;;;;;13.78;90.40;100781.63;5111802;28;20095;-74
2022/05/05 12:16:15;;;;;;;27.13;16.33;;;;;;;13.89;91.23;100787.53;5110810;28;20569;-73
2022/05/05 12:18:50;;;;;;;31.30;16.83;;;;;;;13.95;90.79;100778.78;5112099;28;20578;-73
2022/05/05 12:21:23;;;;;;;24.80;15.35;;;;;;;14.10;91.10;100785.00;5111837;28;20392;-73
2022/05/05 12:24:02;;;;;;;25.10;15.52;;;;;;;14.06;91.15;100779.19;5111797;28;20059;-73
2022/05/05 12:26:32;;;;;;;26.92;16.50;;;;;;;14.22;91.43;100788.09;5111941;28;20078;-73
2022/05/05 12:28:59;;;;;;;24.45;13.90;;;;;;;14.16;86.15;100778.09;5112020;28;20392;-73
2022/05/05 12:31:26;;;;;;;23.87;13.57;;;;;;;14.31;85.35;100787.78;5111935;28;20070;-73
2022/05/05 12:33:51;;;;;;;19.77;13.52;;;;;;;14.15;83.17;100785.31;5111886;28;20273;-73
2022/05/05 12:36:17;;;;;;;20.90;13.68;;;;;;;14.30;81.87;100788.81;5111870;28;20488;-73
2022/05/05 12:38:43;;;;;;;20.17;13.73;;;;;;;14.36;84.95;100768.50;5111977;28;20489;-73
2022/05/05 12:41:11;;;;;;;21.90;13.48;;;;;;;14.15;84.24;100777.25;5111844;28;20123;-74
2022/05/05 12:43:39;;;;;;;24.20;14.13;;;;;;;14.23;85.15;100779.84;5113059;28;20138;-73
2022/05/05 12:46:05;;;;;;;22.83;13.98;;;;;;;14.32;84.54;100783.25;5114624;28;20040;-73
2022/05/05 12:48:31;;;;;;;21.48;14.52;;;;;;;14.42;87.44;100777.63;5115899;28;20050;-73
2022/05/05 12:50:57;;;;;;;23.10;14.57;;;;;;;14.64;87.36;100774.03;5114421;28;20042;-73
2022/05/05 13:01:43;;;;;;;21.90;14.73;;;;;;;14.97;88.71;100763.69;5115414;28;20476;-73
2022/05/05 13:04:12;;;;;;;25.38;16.38;;;;;;;15.06;87.70;100761.72;5115525;28;20430;-73
2022/05/05 13:06:39;;;;;;;22.48;15.23;;;;;;;15.00;88.65;100751.78;5115487;28;20492;-73
2022/05/05 13:09:10;;;;;;;25.70;15.82;;;;;;;14.94;86.08;100761.41;5115466;27;20500;-73
2022/05/05 13:11:44;;;;;;;22.15;15.65;;;;;;;15.11;82.66;100762.00;5114091;28;20020;-74
2022/05/05 13:14:10;;;;;;;20.58;15.13;;;;;;;15.01;85.21;100758.81;5114290;28;20500;-74
2022/05/05 13:16:36;;;;;;;22.80;14.93;;;;;;;14.93;85.76;100762.41;5115348;28;20391;-74
2022/05/05 13:19:03;;;;;;;26.73;16.08;;;;;;;14.95;88.64;100748.81;5115270;28;20047;-74
2022/05/05 13:21:29;;;;;;;23.42;14.90;;;;;;;15.18;86.31;100752.97;5115043;28;20421;-74
2022/05/05 13:23:56;;;;;;;20.15;14.98;;;;;;;15.37;82.60;100748.84;5115119;28;20035;-75
2022/05/05 13:26:22;;;;;;;24.90;15.77;;;;;;;15.27;84.15;100747.50;5115143;28;20032;-75
2022/05/05 13:28:48;;;;;;;21.70;13.32;;;;;;;15.67;82.77;100751.41;5115160;28;20034;-74
2022/05/05 13:31:13;;;;;;;18.73;12.80;;;;;;;15.70;79.63;100753.69;5115290;28;20035;-74
2022/05/05 13:33:39;;;;;;;22.83;13.38;;;;;;;15.66;80.80;100749.75;5114644;28;20031;-75
2022/05/05 13:36:05;;;;;;;21.40;14.70;;;;;;;15.78;80.65;100753.56;5114027;28;20043;-74
2022/05/05 13:38:32;;;;;;;;;;;;;;;15.75;79.87;100748.56;5097201;28;20031;-74
2022/05/05 13:40:58;;;;;;;19.95;13.25;;;;;;;16.01;78.92;100750.63;5114832;28;19915;-74
2022/05/05 13:43:24;;;;;;;21.60;13.52;;;;;;;16.04;78.54;100746.69;5113050;28;20220;-75
2022/05/05 13:45:50;;;;;;;20.73;13.70;;;;;;;15.99;76.56;100733.88;5114714;28;20047;-75
2022/05/05 13:48:16;;;;;;;24.95;14.63;;;;;;;15.97;78.54;100741.28;5113394;28;20042;-75
2022/05/05 13:50:42;;;;;;;19.70;13.38;;;;;;;16.07;78.22;100739.09;5114613;28;20035;-74
2022/05/05 13:53:07;;;;;;;22.35;13.48;;;;;;;16.02;76.81;100739.69;5113693;28;20048;-74
2022/05/05 13:55:35;;;;;;;18.40;12.20;;;;;;;16.14;79.82;100731.06;5114345;28;20061;-74
2022/05/05 13:58:02;;;;;;;22.40;14.32;;;;;;;15.98;82.36;100737.59;5114539;28;20036;-72
2022/05/05 14:00:30;;;;;;;18.98;13.88;;;;;;;15.98;79.22;100734.91;5113477;28;20043;-75
2022/05/05 14:02:56;;;;;;;20.73;12.35;;;;;;;16.09;79.48;100733.50;5114413;27;20453;-74
2022/05/05 14:05:22;;;;;;;20.30;13.00;;;;;;;16.16;79.21;100731.69;5112883;28;20062;-74
2022/05/05 14:13:16;;;;;;;18.38;13.10;;;;;;;15.90;80.00;100722.44;5113740;28;20054;-74
2022/05/05 14:15:42;;;;;;;19.48;12.65;;;;;;;16.07;79.39;100727.50;5113082;28;20481;-74
2022/05/05 14:18:08;;;;;;;16.98;12.57;;;;;;;15.85;79.24;100730.28;5114115;28;20035;-75
2022/05/05 14:20:34;;;;;;;17.20;12.00;;;;;;;15.94;78.09;100731.78;5114056;28;20047;-74
2022/05/05 14:23:00;;;;;;;18.83;12.85;;;;;;;15.87;78.22;100725.53;5113739;28;20043;-74
2022/05/05 14:25:26;;;;;;;19.65;13.20;;;;;;;15.82;79.68;100736.03;5112549;28;20027;-74
2022/05/05 14:27:52;;;;;;;17.63;13.02;;;;;;;15.61;80.88;100730.66;5113695;28;20112;-73
2022/05/05 14:30:18;;;;;;;19.10;12.50;;;;;;;15.63;78.20;100739.38;5113724;28;20047;-74
2022/05/05 14:32:44;;;;;;;20.50;13.43;;;;;;;15.48;80.30;100737.59;5113373;27;20404;-74
2022/05/05 14:35:13;;;;;;;21.55;13.77;;;;;;;15.33;79.50;100738.69;5113778;28;20043;-73
2022/05/05 14:37:38;;;;;;;19.38;12.60;;;;;;;15.37;80.55;100735.41;5112523;28;20160;-72
2022/05/05 14:40:05;;;;;;;21.48;12.63;;;;;;;15.44;80.50;100743.53;5112351;28;20130;-73
2022/05/05 14:42:31;;;;;;;21.50;12.60;;;;;;;15.44;80.58;100743.53;5113281;28;20035;-73
2022/05/05 14:44:56;;;;;;;19.10;12.65;;;;;;;15.29;82.00;100746.28;5113723;28;20077;-72
2022/05/05 14:47:22;;;;;;;22.13;12.27;;;;;;;15.23;81.06;100741.69;5113332;28;20075;-72
2022/05/05 14:49:50;;;;;;;20.15;12.05;;;;;;;15.20;81.30;100750.13;5112504;28;20061;-74
2022/05/05 14:52:17;;;;;;;20.35;10.98;;;;;;;15.25;81.33;100745.00;5113147;28;20031;-73
2022/05/05 14:54:43;;;;;;;19.75;11.55;;;;;;;15.28;82.68;100747.31;5113423;28;20027;-74
2022/05/05 14:57:12;;;;;;;15.98;12.23;;;;;;;15.30;81.43;100745.25;5113267;28;20114;-74
2022/05/05 14:59:38;;;;;;;18.58;12.15;;;;;;;15.20;82.05;100750.13;5113304;28;20043;-73
2022/05/05 15:02:04;;;;;;;16.15;11.98;;;;;;;15.26;80.98;100749.38;5112845;28;20131;-73
2022/05/05 15:04:29;;;;;;;20.15;12.80;;;;;;;15.18;80.64;100750.31;5112926;28;20660;-74
2022/05/05 15:06:55;;;;;;;23.15;12.63;;;;;;;15.25;80.82;100747.69;5112353;28;20169;-72
2022/05/05 15:09:22;;;;;;;17.60;11.65;;;;;;;15.27;80.06;100745.66;5113218;28;20032;-74
2022/05/05 15:11:48;;;;;;;17.15;11.88;;;;;;;15.31;81.87;100746.91;5112756;28;20031;-75
2022/05/05 15:14:13;;;;;;;18.90;12.48;;;;;;;15.31;81.73;100740.72;5113040;28;20040;-74
2022/05/05 15:16:39;;;;;;;22.50;13.75;;;;;;;15.41;81.46;100743.94;5113035;28;20043;-76
2022/05/05 15:19:04;;;;;;;17.25;11.90;;;;;;;15.38;84.75;100745.13;5111887;28;20048;-76
2022/05/05 15:21:30;;;;;;;19.33;12.55;;;;;;;15.44;82.00;100749.72;5112715;28;20023;-75
2022/05/05 15:23:56;;;;;;;18.40;11.15;;;;;;;15.42;81.21;100754.47;5112717;28;20053;-74
2022/05/05 15:26:22;;;;;;;18.88;11.60;;;;;;;15.15;80.10;100752.56;5112690;28;20154;-74
2022/05/05 15:28:49;;;;;;;16.05;10.98;;;;;;;15.32;80.72;100751.28;5112820;28;20046;-73
2022/05/05 15:31:14;;;;;;;16.85;12.00;;;;;;;15.32;81.35;100753.13;5112732;28;20076;-73
2022/05/05 15:33:40;;;;;;;16.20;11.32;;;;;;;15.17;80.27;100755.88;5112467;28;20031;-74
2022/05/05 15:36:07;;;;;;;16.10;11.07;;;;;;;15.21;81.86;100754.47;5112630;28;20446;-74
2022/05/05 15:38:32;;;;;;;17.58;11.98;;;;;;;15.07;80.45;100744.63;5111231;28;20040;-73
2022/05/05 15:40:58;;;;;;;19.25;11.77;;;;;;;14.97;80.35;100747.59;5112409;28;20095;-73
2022/05/05 15:43:23;;;;;;;17.63;11.48;;;;;;;15.00;80.18;100754.47;5110988;28;20040;-73
2022/05/05 15:45:49;;;;;;;17.27;11.13;;;;;;;15.11;80.31;100749.41;5112840;28;20071;-74
2022/05/05 15:48:16;;;;;;;19.70;12.13;;;;;;;15.10;81.18;100757.66;5112394;28;20517;-73
2022/05/05 15:50:42;;;;;;;20.77;12.13;;;;;;;15.10;82.27;100754.97;5112508;28;20046;-74
2022/05/05 15:53:07;;;;;;;17.50;10.82;;;;;;;15.03;80.96;100749.53;5112240;28;20040;-73
2022/05/05 15:55:33;;;;;;;17.30;11.00;;;;;;;15.07;80.76;100752.69;5112478;28;20039;-74
2022/05/05 15:58:01;;;;;;;15.63;11.38;;;;;;;14.93;82.10;100744.50;5112301;28;20028;-73
2022/05/05 16:00:28;;;;;;;15.25;11.10;;;;;;;14.96;82.40;100750.50;5111019;28;20040;-74
2022/05/05 16:02:56;;;;;;;15.90;10.30;;;;;;;14.97;81.75;100754.81;5111827;28;20126;-73
2022/05/05 16:05:23;;;;;;;19.02;10.82;;;;;;;14.96;82.57;100751.31;5112065;28;20045;-74
2022/05/05 16:07:50;;;;;;;19.88;11.65;;;;;;;14.95;80.95;100756.88;5112161;28;20499;-74
2022/05/05 16:10:17;;;;;;;15.63;10.82;;;;;;;14.93;81.66;100749.00;5111039;28;20378;-73
2022/05/05 16:12:42;;;;;;;17.30;11.50;;;;;;;14.96;81.04;100754.00;5111998;28;20051;-73
2022/05/05 16:15:09;;;;;;;15.65;10.82;;;;;;;14.98;81.32;100751.13;5112124;28;20086;-73
2022/05/05 16:17:37;;;;;;;17.15;10.63;;;;;;;14.97;82.28;100757.50;5110600;28;20043;-73
2022/05/05 16:20:11;;;;;;;17.95;12.30;;;;;;;14.92;81.13;100752.69;5112164;28;20047;-73
2022/05/05 16:22:37;;;;;;;16.85;10.82;;;;;;;14.96;81.96;100758.53;5094123;28;20046;-75